sensor_id;sensor_type;location;lat;lon;timestamp;P1;durP1;ratioP1;P2;durP2;ratioP2
11608;SDS011;5860;52.018;8.536;2022-08-19T00:02:10;9.63;;;7.27;;
11608;SDS011;5860;52.018;8.536;2022-08-19T00:04:37;11.53;;;8.00;;
11608;SDS011;5860;52.018;8.536;2022-08-19T00:07:06;8.80;;;7.60;;
11608;SDS011;5860;52.018;8.536;2022-08-19T00:09:33;9.77;;;7.03;;
11608;SDS011;5860;52.018;8.536;2022-08-19T00:12:00;9.77;;;7.63;;
11608;SDS011;5860;52.018;8.536;2022-08-19T00:14:28;11.83;;;8.23;;
11608;SDS011;5860;52.018;8.536;2022-08-19T00:16:57;11.57;;;9.10;;
11608;SDS011;5860;52.018;8.536;2022-08-19T00:19:24;11.47;;;8.60;;
11608;SDS011;5860;52.018;8.536;2022-08-19T00:21:51;12.63;;;8.37;;
11608;SDS011;5860;52.018;8.536;2022-08-19T00:24:18;9.87;;;7.70;;
11608;SDS011;5860;52.018;8.536;2022-08-19T00:26:45;11.63;;;7.87;;
11608;SDS011;5860;52.018;8.536;2022-08-19T00:29:13;9.97;;;7.23;;
11608;SDS011;5860;52.018;8.536;2022-08-19T00:31:42;11.17;;;9.00;;
11608;SDS011;5860;52.018;8.536;2022-08-19T00:34:10;15.37;;;9.00;;
11608;SDS011;5860;52.018;8.536;2022-08-19T00:36:39;14.97;;;8.97;;
11608;SDS011;5860;52.018;8.536;2022-08-19T00:39:06;14.10;;;10.00;;
11608;SDS011;5860;52.018;8.536;2022-08-19T00:41:34;10.70;;;9.53;;
11608;SDS011;5860;52.018;8.536;2022-08-19T00:44:11;11.80;;;9.57;;
11608;SDS011;5860;52.018;8.536;2022-08-19T00:46:41;12.10;;;9.30;;
11608;SDS011;5860;52.018;8.536;2022-08-19T00:52:16;11.53;;;9.13;;
11608;SDS011;5860;52.018;8.536;2022-08-19T00:54:50;10.27;;;8.97;;
11608;SDS011;5860;52.018;8.536;2022-08-19T00:57:19;11.93;;;9.27;;
11608;SDS011;5860;52.018;8.536;2022-08-19T00:59:54;14.93;;;9.37;;
11608;SDS011;5860;52.018;8.536;2022-08-19T01:02:28;13.90;;;9.33;;
11608;SDS011;5860;52.018;8.536;2022-08-19T01:04:57;13.03;;;10.03;;
11608;SDS011;5860;52.018;8.536;2022-08-19T01:07:25;15.77;;;10.27;;
11608;SDS011;5860;52.018;8.536;2022-08-19T01:09:52;11.37;;;9.70;;
11608;SDS011;5860;52.018;8.536;2022-08-19T01:12:19;11.53;;;10.20;;
11608;SDS011;5860;52.018;8.536;2022-08-19T01:14:47;13.43;;;10.53;;
11608;SDS011;5860;52.018;8.536;2022-08-19T01:17:15;14.40;;;10.33;;
11608;SDS011;5860;52.018;8.536;2022-08-19T01:19:43;12.60;;;10.17;;
11608;SDS011;5860;52.018;8.536;2022-08-19T01:24:55;17.53;;;10.70;;
11608;SDS011;5860;52.018;8.536;2022-08-19T01:27:24;17.83;;;11.27;;
11608;SDS011;5860;52.018;8.536;2022-08-19T01:29:54;14.77;;;11.30;;
11608;SDS011;5860;52.018;8.536;2022-08-19T01:32:22;19.10;;;11.73;;
11608;SDS011;5860;52.018;8.536;2022-08-19T01:34:59;15.57;;;11.83;;
11608;SDS011;5860;52.018;8.536;2022-08-19T01:37:30;20.43;;;12.23;;
11608;SDS011;5860;52.018;8.536;2022-08-19T01:40:09;16.23;;;11.83;;
11608;SDS011;5860;52.018;8.536;2022-08-19T01:42:36;19.43;;;12.33;;
11608;SDS011;5860;52.018;8.536;2022-08-19T01:45:04;16.63;;;13.17;;
11608;SDS011;5860;52.018;8.536;2022-08-19T01:47:34;17.20;;;12.73;;
11608;SDS011;5860;52.018;8.536;2022-08-19T01:50:03;13.90;;;11.40;;
11608;SDS011;5860;52.018;8.536;2022-08-19T01:52:32;15.13;;;11.40;;
11608;SDS011;5860;52.018;8.536;2022-08-19T01:55:02;16.60;;;11.17;;
11608;SDS011;5860;52.018;8.536;2022-08-19T01:57:31;13.37;;;11.90;;
11608;SDS011;5860;52.018;8.536;2022-08-19T01:59:58;17.03;;;10.97;;
11608;SDS011;5860;52.018;8.536;2022-08-19T02:02:26;15.33;;;11.53;;
11608;SDS011;5860;52.018;8.536;2022-08-19T02:04:52;15.03;;;10.83;;
11608;SDS011;5860;52.018;8.536;2022-08-19T02:07:20;14.33;;;11.27;;
11608;SDS011;5860;52.018;8.536;2022-08-19T02:09:47;14.20;;;11.90;;
11608;SDS011;5860;52.018;8.536;2022-08-19T02:12:14;17.77;;;11.97;;
11608;SDS011;5860;52.018;8.536;2022-08-19T02:14:42;19.17;;;12.47;;
11608;SDS011;5860;52.018;8.536;2022-08-19T02:17:09;18.73;;;12.53;;
11608;SDS011;5860;52.018;8.536;2022-08-19T02:19:36;14.27;;;12.57;;
11608;SDS011;5860;52.018;8.536;2022-08-19T02:22:06;14.93;;;13.33;;
11608;SDS011;5860;52.018;8.536;2022-08-19T02:24:33;18.10;;;13.30;;
11608;SDS011;5860;52.018;8.536;2022-08-19T02:27:00;17.87;;;13.30;;
11608;SDS011;5860;52.018;8.536;2022-08-19T02:29:27;19.10;;;13.43;;
11608;SDS011;5860;52.018;8.536;2022-08-19T02:31:53;18.07;;;13.13;;
11608;SDS011;5860;52.018;8.536;2022-08-19T02:34:21;18.27;;;13.40;;
11608;SDS011;5860;52.018;8.536;2022-08-19T02:36:48;17.53;;;13.83;;
11608;SDS011;5860;52.018;8.536;2022-08-19T02:39:17;19.87;;;12.90;;
11608;SDS011;5860;52.018;8.536;2022-08-19T02:41:44;15.83;;;13.77;;
11608;SDS011;5860;52.018;8.536;2022-08-19T02:44:11;17.60;;;13.93;;
11608;SDS011;5860;52.018;8.536;2022-08-19T02:46:56;17.70;;;12.63;;
11608;SDS011;5860;52.018;8.536;2022-08-19T02:49:23;17.77;;;13.23;;
11608;SDS011;5860;52.018;8.536;2022-08-19T02:51:50;16.13;;;12.80;;
11608;SDS011;5860;52.018;8.536;2022-08-19T02:54:17;18.80;;;13.63;;
11608;SDS011;5860;52.018;8.536;2022-08-19T02:56:44;18.00;;;14.17;;
11608;SDS011;5860;52.018;8.536;2022-08-19T02:59:12;16.63;;;13.77;;
11608;SDS011;5860;52.018;8.536;2022-08-19T03:01:40;16.97;;;14.27;;
11608;SDS011;5860;52.018;8.536;2022-08-19T03:04:09;18.23;;;14.47;;
11608;SDS011;5860;52.018;8.536;2022-08-19T03:06:39;20.97;;;15.03;;
11608;SDS011;5860;52.018;8.536;2022-08-19T03:09:08;20.07;;;14.77;;
11608;SDS011;5860;52.018;8.536;2022-08-19T03:11:36;21.17;;;15.40;;
11608;SDS011;5860;52.018;8.536;2022-08-19T03:14:04;16.80;;;15.00;;
11608;SDS011;5860;52.018;8.536;2022-08-19T03:16:33;17.00;;;14.50;;
11608;SDS011;5860;52.018;8.536;2022-08-19T03:19:06;18.27;;;14.63;;
11608;SDS011;5860;52.018;8.536;2022-08-19T03:21:34;18.97;;;14.73;;
11608;SDS011;5860;52.018;8.536;2022-08-19T03:24:02;19.93;;;15.10;;
11608;SDS011;5860;52.018;8.536;2022-08-19T03:26:31;18.13;;;15.20;;
11608;SDS011;5860;52.018;8.536;2022-08-19T03:29:02;17.73;;;15.43;;
11608;SDS011;5860;52.018;8.536;2022-08-19T03:31:31;16.93;;;14.83;;
11608;SDS011;5860;52.018;8.536;2022-08-19T03:34:27;17.17;;;14.23;;
11608;SDS011;5860;52.018;8.536;2022-08-19T03:36:57;19.83;;;15.17;;
11608;SDS011;5860;52.018;8.536;2022-08-19T03:39:26;21.23;;;16.07;;
11608;SDS011;5860;52.018;8.536;2022-08-19T03:41:54;21.87;;;14.93;;
11608;SDS011;5860;52.018;8.536;2022-08-19T03:44:44;21.97;;;14.97;;
11608;SDS011;5860;52.018;8.536;2022-08-19T03:47:11;22.23;;;15.77;;
11608;SDS011;5860;52.018;8.536;2022-08-19T03:49:42;17.97;;;14.17;;
11608;SDS011;5860;52.018;8.536;2022-08-19T03:52:10;17.90;;;13.67;;
11608;SDS011;5860;52.018;8.536;2022-08-19T03:54:37;16.23;;;13.63;;
11608;SDS011;5860;52.018;8.536;2022-08-19T03:57:04;17.53;;;13.70;;
11608;SDS011;5860;52.018;8.536;2022-08-19T03:59:32;17.07;;;12.83;;
11608;SDS011;5860;52.018;8.536;2022-08-19T04:02:03;17.00;;;12.93;;
11608;SDS011;5860;52.018;8.536;2022-08-19T04:04:36;15.93;;;12.27;;
11608;SDS011;5860;52.018;8.536;2022-08-19T04:07:04;14.13;;;12.63;;
11608;SDS011;5860;52.018;8.536;2022-08-19T04:09:33;18.00;;;12.03;;
11608;SDS011;5860;52.018;8.536;2022-08-19T04:12:03;13.00;;;11.67;;
11608;SDS011;5860;52.018;8.536;2022-08-19T04:14:32;13.60;;;12.13;;
11608;SDS011;5860;52.018;8.536;2022-08-19T04:17:00;14.27;;;12.50;;
11608;SDS011;5860;52.018;8.536;2022-08-19T04:19:30;15.33;;;12.27;;
11608;SDS011;5860;52.018;8.536;2022-08-19T04:21:58;17.20;;;11.30;;
11608;SDS011;5860;52.018;8.536;2022-08-19T04:24:25;15.00;;;11.73;;
11608;SDS011;5860;52.018;8.536;2022-08-19T04:26:52;14.23;;;10.90;;
11608;SDS011;5860;52.018;8.536;2022-08-19T04:29:20;15.40;;;10.33;;
11608;SDS011;5860;52.018;8.536;2022-08-19T04:31:51;13.63;;;10.70;;
11608;SDS011;5860;52.018;8.536;2022-08-19T04:34:20;12.37;;;10.00;;
11608;SDS011;5860;52.018;8.536;2022-08-19T04:36:49;12.27;;;10.40;;
11608;SDS011;5860;52.018;8.536;2022-08-19T04:39:18;12.50;;;10.30;;
11608;SDS011;5860;52.018;8.536;2022-08-19T04:42:11;11.93;;;10.70;;
11608;SDS011;5860;52.018;8.536;2022-08-19T04:44:57;13.57;;;10.87;;
11608;SDS011;5860;52.018;8.536;2022-08-19T04:47:25;17.10;;;10.87;;
11608;SDS011;5860;52.018;8.536;2022-08-19T04:50:12;14.83;;;11.83;;
11608;SDS011;5860;52.018;8.536;2022-08-19T04:52:39;16.07;;;11.87;;
11608;SDS011;5860;52.018;8.536;2022-08-19T04:55:10;16.23;;;11.67;;
11608;SDS011;5860;52.018;8.536;2022-08-19T04:57:37;15.70;;;11.43;;
11608;SDS011;5860;52.018;8.536;2022-08-19T05:00:09;12.67;;;11.27;;
11608;SDS011;5860;52.018;8.536;2022-08-19T05:02:37;13.13;;;10.73;;
11608;SDS011;5860;52.018;8.536;2022-08-19T05:05:05;13.53;;;9.93;;
11608;SDS011;5860;52.018;8.536;2022-08-19T05:07:33;12.90;;;9.73;;
11608;SDS011;5860;52.018;8.536;2022-08-19T05:10:00;10.10;;;8.67;;
11608;SDS011;5860;52.018;8.536;2022-08-19T05:12:27;13.30;;;9.67;;
11608;SDS011;5860;52.018;8.536;2022-08-19T05:14:55;11.57;;;8.40;;
11608;SDS011;5860;52.018;8.536;2022-08-19T05:17:24;9.33;;;8.37;;
11608;SDS011;5860;52.018;8.536;2022-08-19T05:19:57;10.33;;;8.20;;
11608;SDS011;5860;52.018;8.536;2022-08-19T05:22:43;8.83;;;7.87;;
11608;SDS011;5860;52.018;8.536;2022-08-19T05:25:13;9.37;;;7.80;;
11608;SDS011;5860;52.018;8.536;2022-08-19T05:27:44;9.27;;;7.07;;
11608;SDS011;5860;52.018;8.536;2022-08-19T05:30:12;8.07;;;6.55;;
11608;SDS011;5860;52.018;8.536;2022-08-19T05:32:39;8.25;;;7.13;;
11608;SDS011;5860;52.018;8.536;2022-08-19T05:35:07;9.38;;;6.97;;
11608;SDS011;5860;52.018;8.536;2022-08-19T05:37:34;10.90;;;6.80;;
11608;SDS011;5860;52.018;8.536;2022-08-19T05:40:02;8.80;;;6.97;;
11608;SDS011;5860;52.018;8.536;2022-08-19T05:42:30;10.68;;;7.50;;
11608;SDS011;5860;52.018;8.536;2022-08-19T05:44:56;10.98;;;6.72;;
11608;SDS011;5860;52.018;8.536;2022-08-19T05:47:23;10.27;;;6.93;;
11608;SDS011;5860;52.018;8.536;2022-08-19T05:49:50;11.63;;;6.72;;
11608;SDS011;5860;52.018;8.536;2022-08-19T05:52:18;10.05;;;6.18;;
11608;SDS011;5860;52.018;8.536;2022-08-19T05:54:51;8.27;;;5.97;;
11608;SDS011;5860;52.018;8.536;2022-08-19T05:57:20;8.60;;;5.55;;
11608;SDS011;5860;52.018;8.536;2022-08-19T05:59:48;10.27;;;6.20;;
11608;SDS011;5860;52.018;8.536;2022-08-19T06:02:23;7.55;;;5.10;;
11608;SDS011;5860;52.018;8.536;2022-08-19T06:04:54;7.00;;;5.05;;
11608;SDS011;5860;52.018;8.536;2022-08-19T06:07:21;7.55;;;5.10;;
11608;SDS011;5860;52.018;8.536;2022-08-19T06:09:48;6.03;;;5.10;;
11608;SDS011;5860;52.018;8.536;2022-08-19T06:12:26;6.32;;;4.40;;
11608;SDS011;5860;52.018;8.536;2022-08-19T06:14:58;4.75;;;4.22;;
11608;SDS011;5860;52.018;8.536;2022-08-19T06:17:27;5.78;;;4.07;;
11608;SDS011;5860;52.018;8.536;2022-08-19T06:19:56;5.32;;;3.83;;
11608;SDS011;5860;52.018;8.536;2022-08-19T06:22:24;7.35;;;3.88;;
11608;SDS011;5860;52.018;8.536;2022-08-19T06:24:51;5.13;;;3.85;;
11608;SDS011;5860;52.018;8.536;2022-08-19T06:27:20;5.30;;;3.78;;
11608;SDS011;5860;52.018;8.536;2022-08-19T06:29:48;7.05;;;4.00;;
11608;SDS011;5860;52.018;8.536;2022-08-19T06:32:15;6.05;;;3.92;;
11608;SDS011;5860;52.018;8.536;2022-08-19T06:34:43;5.15;;;3.80;;
11608;SDS011;5860;52.018;8.536;2022-08-19T06:37:11;5.60;;;4.03;;
11608;SDS011;5860;52.018;8.536;2022-08-19T06:39:39;6.68;;;3.97;;
11608;SDS011;5860;52.018;8.536;2022-08-19T06:42:07;7.00;;;3.70;;
11608;SDS011;5860;52.018;8.536;2022-08-19T06:44:38;4.65;;;3.55;;
11608;SDS011;5860;52.018;8.536;2022-08-19T06:47:15;5.25;;;3.60;;
11608;SDS011;5860;52.018;8.536;2022-08-19T06:49:50;5.05;;;4.10;;
11608;SDS011;5860;52.018;8.536;2022-08-19T06:52:19;7.82;;;4.72;;
11608;SDS011;5860;52.018;8.536;2022-08-19T06:54:46;7.82;;;4.78;;
11608;SDS011;5860;52.018;8.536;2022-08-19T06:57:22;5.63;;;4.13;;
11608;SDS011;5860;52.018;8.536;2022-08-19T06:59:50;6.43;;;3.95;;
11608;SDS011;5860;52.018;8.536;2022-08-19T07:02:18;5.95;;;3.80;;
11608;SDS011;5860;52.018;8.536;2022-08-19T07:04:47;5.47;;;3.60;;
11608;SDS011;5860;52.018;8.536;2022-08-19T07:07:18;4.80;;;3.78;;
11608;SDS011;5860;52.018;8.536;2022-08-19T07:09:47;5.35;;;3.97;;
11608;SDS011;5860;52.018;8.536;2022-08-19T07:12:27;4.40;;;3.50;;
11608;SDS011;5860;52.018;8.536;2022-08-19T07:14:56;3.78;;;3.10;;
11608;SDS011;5860;52.018;8.536;2022-08-19T07:17:24;4.68;;;3.78;;
11608;SDS011;5860;52.018;8.536;2022-08-19T07:19:51;4.07;;;3.22;;
11608;SDS011;5860;52.018;8.536;2022-08-19T07:22:19;6.70;;;3.50;;
11608;SDS011;5860;52.018;8.536;2022-08-19T07:24:49;5.15;;;3.25;;
11608;SDS011;5860;52.018;8.536;2022-08-19T07:27:19;4.72;;;3.75;;
11608;SDS011;5860;52.018;8.536;2022-08-19T07:29:50;5.55;;;2.95;;
11608;SDS011;5860;52.018;8.536;2022-08-19T07:32:21;3.45;;;2.97;;
11608;SDS011;5860;52.018;8.536;2022-08-19T07:34:48;4.15;;;3.30;;
11608;SDS011;5860;52.018;8.536;2022-08-19T07:37:15;4.78;;;3.35;;
11608;SDS011;5860;52.018;8.536;2022-08-19T07:39:43;5.50;;;3.20;;
11608;SDS011;5860;52.018;8.536;2022-08-19T07:42:10;4.68;;;2.95;;
11608;SDS011;5860;52.018;8.536;2022-08-19T07:44:39;3.85;;;3.10;;
11608;SDS011;5860;52.018;8.536;2022-08-19T07:47:06;4.47;;;3.17;;
11608;SDS011;5860;52.018;8.536;2022-08-19T07:49:53;3.90;;;3.35;;
11608;SDS011;5860;52.018;8.536;2022-08-19T07:52:21;3.92;;;3.50;;
11608;SDS011;5860;52.018;8.536;2022-08-19T07:54:48;5.68;;;4.15;;
11608;SDS011;5860;52.018;8.536;2022-08-19T07:57:16;4.80;;;3.92;;
11608;SDS011;5860;52.018;8.536;2022-08-19T07:59:45;5.15;;;3.95;;
11608;SDS011;5860;52.018;8.536;2022-08-19T08:02:12;6.35;;;3.97;;
11608;SDS011;5860;52.018;8.536;2022-08-19T08:04:39;5.25;;;3.55;;
11608;SDS011;5860;52.018;8.536;2022-08-19T08:07:24;6.68;;;4.60;;
11608;SDS011;5860;52.018;8.536;2022-08-19T08:10:11;5.15;;;4.50;;
11608;SDS011;5860;52.018;8.536;2022-08-19T08:12:46;4.53;;;4.13;;
11608;SDS011;5860;52.018;8.536;2022-08-19T08:15:35;6.68;;;4.68;;
11608;SDS011;5860;52.018;8.536;2022-08-19T08:18:08;5.97;;;4.70;;
11608;SDS011;5860;52.018;8.536;2022-08-19T08:20:36;6.10;;;4.72;;
11608;SDS011;5860;52.018;8.536;2022-08-19T08:23:04;6.90;;;5.78;;
11608;SDS011;5860;52.018;8.536;2022-08-19T08:25:52;7.30;;;5.20;;
11608;SDS011;5860;52.018;8.536;2022-08-19T08:28:21;7.43;;;5.00;;
11608;SDS011;5860;52.018;8.536;2022-08-19T08:30:49;7.10;;;5.28;;
11608;SDS011;5860;52.018;8.536;2022-08-19T08:33:19;5.63;;;5.05;;
11608;SDS011;5860;52.018;8.536;2022-08-19T08:35:58;7.03;;;5.55;;
11608;SDS011;5860;52.018;8.536;2022-08-19T08:38:25;5.72;;;4.72;;
11608;SDS011;5860;52.018;8.536;2022-08-19T08:41:07;4.78;;;4.30;;
11608;SDS011;5860;52.018;8.536;2022-08-19T08:43:45;5.70;;;4.30;;
11608;SDS011;5860;52.018;8.536;2022-08-19T08:46:29;6.07;;;4.40;;
11608;SDS011;5860;52.018;8.536;2022-08-19T08:51:43;6.18;;;4.40;;
11608;SDS011;5860;52.018;8.536;2022-08-19T08:54:27;5.15;;;4.32;;
11608;SDS011;5860;52.018;8.536;2022-08-19T08:57:02;7.07;;;3.58;;
11608;SDS011;5860;52.018;8.536;2022-08-19T08:59:34;4.70;;;3.33;;
11608;SDS011;5860;52.018;8.536;2022-08-19T09:02:05;4.68;;;3.50;;
11608;SDS011;5860;52.018;8.536;2022-08-19T09:04:33;4.35;;;3.63;;
11608;SDS011;5860;52.018;8.536;2022-08-19T09:07:21;5.43;;;3.92;;
11608;SDS011;5860;52.018;8.536;2022-08-19T09:15:58;5.07;;;3.83;;
11608;SDS011;5860;52.018;8.536;2022-08-19T09:18:41;4.97;;;3.78;;
11608;SDS011;5860;52.018;8.536;2022-08-19T09:21:20;4.43;;;3.28;;
11608;SDS011;5860;52.018;8.536;2022-08-19T09:23:58;4.50;;;3.60;;
11608;SDS011;5860;52.018;8.536;2022-08-19T09:26:28;11.00;;;3.72;;
11608;SDS011;5860;52.018;8.536;2022-08-19T09:29:13;4.78;;;3.40;;
11608;SDS011;5860;52.018;8.536;2022-08-19T09:31:42;3.28;;;2.97;;
11608;SDS011;5860;52.018;8.536;2022-08-19T09:34:09;5.45;;;3.20;;
11608;SDS011;5860;52.018;8.536;2022-08-19T09:36:47;4.25;;;2.65;;
11608;SDS011;5860;52.018;8.536;2022-08-19T09:39:20;4.30;;;2.70;;
11608;SDS011;5860;52.018;8.536;2022-08-19T09:41:48;5.22;;;3.47;;
11608;SDS011;5860;52.018;8.536;2022-08-19T09:44:16;4.60;;;3.33;;
11608;SDS011;5860;52.018;8.536;2022-08-19T09:46:47;3.05;;;2.75;;
11608;SDS011;5860;52.018;8.536;2022-08-19T09:49:14;3.72;;;3.30;;
11608;SDS011;5860;52.018;8.536;2022-08-19T09:51:43;4.88;;;3.42;;
11608;SDS011;5860;52.018;8.536;2022-08-19T09:54:16;5.18;;;3.28;;
11608;SDS011;5860;52.018;8.536;2022-08-19T09:56:50;4.50;;;3.50;;
11608;SDS011;5860;52.018;8.536;2022-08-19T09:59:18;4.07;;;3.13;;
11608;SDS011;5860;52.018;8.536;2022-08-19T10:01:45;4.93;;;3.03;;
11608;SDS011;5860;52.018;8.536;2022-08-19T10:04:13;4.18;;;3.40;;
11608;SDS011;5860;52.018;8.536;2022-08-19T10:06:45;5.32;;;3.47;;
11608;SDS011;5860;52.018;8.536;2022-08-19T10:09:18;6.90;;;3.80;;
11608;SDS011;5860;52.018;8.536;2022-08-19T10:11:59;4.72;;;3.35;;
11608;SDS011;5860;52.018;8.536;2022-08-19T10:14:28;3.72;;;3.20;;
11608;SDS011;5860;52.018;8.536;2022-08-19T10:16:54;3.38;;;3.08;;
11608;SDS011;5860;52.018;8.536;2022-08-19T10:19:24;3.75;;;3.30;;
11608;SDS011;5860;52.018;8.536;2022-08-19T10:21:52;4.25;;;2.65;;
11608;SDS011;5860;52.018;8.536;2022-08-19T10:24:25;2.75;;;2.38;;
11608;SDS011;5860;52.018;8.536;2022-08-19T10:26:54;2.92;;;2.63;;
11608;SDS011;5860;52.018;8.536;2022-08-19T10:29:25;3.90;;;2.90;;
11608;SDS011;5860;52.018;8.536;2022-08-19T10:32:02;2.92;;;2.60;;
11608;SDS011;5860;52.018;8.536;2022-08-19T10:34:38;3.65;;;2.70;;
11608;SDS011;5860;52.018;8.536;2022-08-19T10:37:14;4.45;;;2.85;;
11608;SDS011;5860;52.018;8.536;2022-08-19T10:39:56;4.18;;;2.40;;
11608;SDS011;5860;52.018;8.536;2022-08-19T10:42:24;2.67;;;2.25;;
11608;SDS011;5860;52.018;8.536;2022-08-19T10:44:51;5.30;;;2.88;;
11608;SDS011;5860;52.018;8.536;2022-08-19T10:47:18;3.05;;;2.42;;
11608;SDS011;5860;52.018;8.536;2022-08-19T10:49:51;2.08;;;1.80;;
11608;SDS011;5860;52.018;8.536;2022-08-19T10:52:39;3.03;;;2.35;;
11608;SDS011;5860;52.018;8.536;2022-08-19T10:55:16;3.00;;;2.10;;
11608;SDS011;5860;52.018;8.536;2022-08-19T10:58:09;3.58;;;2.10;;
11608;SDS011;5860;52.018;8.536;2022-08-19T11:00:41;5.75;;;2.78;;
11608;SDS011;5860;52.018;8.536;2022-08-19T11:03:09;3.50;;;1.90;;
11608;SDS011;5860;52.018;8.536;2022-08-19T11:05:36;3.78;;;2.50;;
11608;SDS011;5860;52.018;8.536;2022-08-19T11:08:05;3.90;;;2.40;;
11608;SDS011;5860;52.018;8.536;2022-08-19T11:10:49;3.92;;;2.17;;
11608;SDS011;5860;52.018;8.536;2022-08-19T11:13:19;2.03;;;1.83;;
11608;SDS011;5860;52.018;8.536;2022-08-19T11:15:47;2.67;;;2.30;;
11608;SDS011;5860;52.018;8.536;2022-08-19T11:18:14;3.38;;;2.63;;
11608;SDS011;5860;52.018;8.536;2022-08-19T11:20:40;2.83;;;2.50;;
11608;SDS011;5860;52.018;8.536;2022-08-19T11:23:07;6.28;;;2.83;;
11608;SDS011;5860;52.018;8.536;2022-08-19T11:25:34;3.03;;;2.15;;
11608;SDS011;5860;52.018;8.536;2022-08-19T11:28:04;6.45;;;2.50;;
11608;SDS011;5860;52.018;8.536;2022-08-19T11:30:31;3.28;;;2.70;;
11608;SDS011;5860;52.018;8.536;2022-08-19T11:33:00;3.70;;;2.90;;
11608;SDS011;5860;52.018;8.536;2022-08-19T11:35:27;5.57;;;2.83;;
11608;SDS011;5860;52.018;8.536;2022-08-19T11:37:54;4.38;;;2.90;;
11608;SDS011;5860;52.018;8.536;2022-08-19T11:40:22;3.22;;;2.63;;
11608;SDS011;5860;52.018;8.536;2022-08-19T11:42:49;8.02;;;3.17;;
11608;SDS011;5860;52.018;8.536;2022-08-19T11:45:23;3.53;;;2.70;;
11608;SDS011;5860;52.018;8.536;2022-08-19T11:47:50;3.25;;;2.55;;
11608;SDS011;5860;52.018;8.536;2022-08-19T11:50:18;4.82;;;2.20;;
11608;SDS011;5860;52.018;8.536;2022-08-19T11:52:45;4.82;;;2.30;;
11608;SDS011;5860;52.018;8.536;2022-08-19T11:55:13;2.90;;;2.30;;
11608;SDS011;5860;52.018;8.536;2022-08-19T11:57:40;2.60;;;2.40;;
11608;SDS011;5860;52.018;8.536;2022-08-19T12:00:08;4.28;;;2.88;;
11608;SDS011;5860;52.018;8.536;2022-08-19T12:02:37;3.33;;;3.00;;
11608;SDS011;5860;52.018;8.536;2022-08-19T12:05:05;3.15;;;2.85;;
11608;SDS011;5860;52.018;8.536;2022-08-19T12:07:38;4.35;;;3.20;;
11608;SDS011;5860;52.018;8.536;2022-08-19T12:10:07;3.65;;;3.20;;
11608;SDS011;5860;52.018;8.536;2022-08-19T12:12:36;6.85;;;3.50;;
11608;SDS011;5860;52.018;8.536;2022-08-19T12:15:06;4.22;;;3.05;;
11608;SDS011;5860;52.018;8.536;2022-08-19T12:17:34;3.83;;;2.80;;
11608;SDS011;5860;52.018;8.536;2022-08-19T12:20:01;3.75;;;2.80;;
11608;SDS011;5860;52.018;8.536;2022-08-19T12:22:29;5.30;;;3.10;;
11608;SDS011;5860;52.018;8.536;2022-08-19T12:24:55;3.35;;;2.60;;
11608;SDS011;5860;52.018;8.536;2022-08-19T12:27:22;4.15;;;2.67;;
11608;SDS011;5860;52.018;8.536;2022-08-19T12:30:05;3.55;;;2.30;;
11608;SDS011;5860;52.018;8.536;2022-08-19T12:32:34;8.30;;;2.65;;
11608;SDS011;5860;52.018;8.536;2022-08-19T12:35:01;2.70;;;2.42;;
11608;SDS011;5860;52.018;8.536;2022-08-19T12:37:28;2.78;;;2.47;;
11608;SDS011;5860;52.018;8.536;2022-08-19T12:39:56;2.70;;;2.50;;
11608;SDS011;5860;52.018;8.536;2022-08-19T12:42:23;5.10;;;2.70;;
11608;SDS011;5860;52.018;8.536;2022-08-19T12:44:50;3.28;;;2.60;;
11608;SDS011;5860;52.018;8.536;2022-08-19T12:47:18;3.25;;;2.65;;
11608;SDS011;5860;52.018;8.536;2022-08-19T12:49:45;2.60;;;2.38;;
11608;SDS011;5860;52.018;8.536;2022-08-19T12:52:20;4.30;;;2.88;;
11608;SDS011;5860;52.018;8.536;2022-08-19T12:54:49;4.47;;;2.50;;
11608;SDS011;5860;52.018;8.536;2022-08-19T12:57:20;3.17;;;2.50;;
11608;SDS011;5860;52.018;8.536;2022-08-19T12:59:57;4.82;;;2.53;;
11608;SDS011;5860;52.018;8.536;2022-08-19T13:02:25;3.55;;;2.97;;
11608;SDS011;5860;52.018;8.536;2022-08-19T13:04:52;3.45;;;2.60;;
11608;SDS011;5860;52.018;8.536;2022-08-19T13:07:20;5.30;;;2.80;;
11608;SDS011;5860;52.018;8.536;2022-08-19T13:09:47;6.28;;;2.50;;
11608;SDS011;5860;52.018;8.536;2022-08-19T13:12:18;4.97;;;2.60;;
11608;SDS011;5860;52.018;8.536;2022-08-19T13:14:50;6.05;;;2.90;;
11608;SDS011;5860;52.018;8.536;2022-08-19T13:17:18;3.80;;;2.65;;
11608;SDS011;5860;52.018;8.536;2022-08-19T13:19:46;3.30;;;2.85;;
11608;SDS011;5860;52.018;8.536;2022-08-19T13:22:13;3.15;;;2.40;;
11608;SDS011;5860;52.018;8.536;2022-08-19T13:24:41;5.40;;;3.35;;
11608;SDS011;5860;52.018;8.536;2022-08-19T13:27:12;3.03;;;2.45;;
11608;SDS011;5860;52.018;8.536;2022-08-19T13:29:40;2.92;;;2.58;;
11608;SDS011;5860;52.018;8.536;2022-08-19T13:32:26;4.10;;;2.72;;
11608;SDS011;5860;52.018;8.536;2022-08-19T13:35:14;3.30;;;2.60;;
11608;SDS011;5860;52.018;8.536;2022-08-19T13:37:42;4.63;;;2.60;;
11608;SDS011;5860;52.018;8.536;2022-08-19T13:40:17;3.55;;;2.92;;
11608;SDS011;5860;52.018;8.536;2022-08-19T13:42:48;3.15;;;2.83;;
11608;SDS011;5860;52.018;8.536;2022-08-19T13:45:20;4.00;;;2.80;;
11608;SDS011;5860;52.018;8.536;2022-08-19T13:47:49;4.28;;;2.85;;
11608;SDS011;5860;52.018;8.536;2022-08-19T13:50:24;6.47;;;2.75;;
11608;SDS011;5860;52.018;8.536;2022-08-19T13:52:54;3.63;;;2.80;;
11608;SDS011;5860;52.018;8.536;2022-08-19T13:55:22;3.97;;;2.40;;
11608;SDS011;5860;52.018;8.536;2022-08-19T13:57:54;4.80;;;2.38;;
11608;SDS011;5860;52.018;8.536;2022-08-19T14:00:24;2.50;;;2.30;;
11608;SDS011;5860;52.018;8.536;2022-08-19T14:02:53;4.50;;;2.70;;
11608;SDS011;5860;52.018;8.536;2022-08-19T14:05:22;5.32;;;2.60;;
11608;SDS011;5860;52.018;8.536;2022-08-19T14:07:51;3.72;;;2.65;;
11608;SDS011;5860;52.018;8.536;2022-08-19T14:10:18;4.30;;;2.45;;
11608;SDS011;5860;52.018;8.536;2022-08-19T14:12:45;3.95;;;2.65;;
11608;SDS011;5860;52.018;8.536;2022-08-19T14:15:12;6.35;;;2.63;;
11608;SDS011;5860;52.018;8.536;2022-08-19T14:17:40;3.35;;;2.30;;
11608;SDS011;5860;52.018;8.536;2022-08-19T14:20:09;3.83;;;2.60;;
11608;SDS011;5860;52.018;8.536;2022-08-19T14:22:44;2.60;;;2.40;;
11608;SDS011;5860;52.018;8.536;2022-08-19T14:25:20;3.15;;;2.40;;
11608;SDS011;5860;52.018;8.536;2022-08-19T14:27:50;4.68;;;2.75;;
11608;SDS011;5860;52.018;8.536;2022-08-19T14:30:20;4.47;;;2.42;;
11608;SDS011;5860;52.018;8.536;2022-08-19T14:32:49;3.20;;;2.50;;
11608;SDS011;5860;52.018;8.536;2022-08-19T14:35:16;3.45;;;2.55;;
11608;SDS011;5860;52.018;8.536;2022-08-19T14:37:44;2.58;;;2.38;;
11608;SDS011;5860;52.018;8.536;2022-08-19T14:40:14;2.53;;;2.28;;
11608;SDS011;5860;52.018;8.536;2022-08-19T14:42:43;3.08;;;2.28;;
11608;SDS011;5860;52.018;8.536;2022-08-19T14:45:11;2.50;;;2.13;;
11608;SDS011;5860;52.018;8.536;2022-08-19T14:47:38;2.50;;;2.30;;
11608;SDS011;5860;52.018;8.536;2022-08-19T14:50:07;4.07;;;2.75;;
11608;SDS011;5860;52.018;8.536;2022-08-19T14:52:36;2.80;;;2.60;;
11608;SDS011;5860;52.018;8.536;2022-08-19T14:55:04;3.78;;;2.65;;
11608;SDS011;5860;52.018;8.536;2022-08-19T14:57:32;3.10;;;2.40;;
11608;SDS011;5860;52.018;8.536;2022-08-19T14:59:59;2.85;;;2.65;;
11608;SDS011;5860;52.018;8.536;2022-08-19T15:02:26;2.95;;;2.65;;
11608;SDS011;5860;52.018;8.536;2022-08-19T15:05:00;3.03;;;2.50;;
11608;SDS011;5860;52.018;8.536;2022-08-19T15:07:28;3.58;;;2.65;;
11608;SDS011;5860;52.018;8.536;2022-08-19T15:09:55;4.88;;;2.55;;
11608;SDS011;5860;52.018;8.536;2022-08-19T15:12:23;2.90;;;2.55;;
11608;SDS011;5860;52.018;8.536;2022-08-19T15:14:50;2.50;;;2.30;;
11608;SDS011;5860;52.018;8.536;2022-08-19T15:17:22;2.50;;;2.20;;
11608;SDS011;5860;52.018;8.536;2022-08-19T15:20:09;3.15;;;2.38;;
11608;SDS011;5860;52.018;8.536;2022-08-19T15:22:39;3.33;;;2.38;;
11608;SDS011;5860;52.018;8.536;2022-08-19T15:25:07;2.88;;;2.15;;
11608;SDS011;5860;52.018;8.536;2022-08-19T15:27:37;4.68;;;2.30;;